Time;durP1;ratioP1;P1;durP2;ratioP2;P2;SDS_P1;SDS_P2;PMS_P1;PMS_P2;Temp;Humidity;BMP_temperature;BMP_pressure;BME280_temperature;BME280_humidity;BME280_pressure;Samples;Min_cycle;Max_cycle;Signal;HPM_P1;HPM_P2
2022/01/15 00:00:03;;;;;;;13.57;7.33;;;;;;;;;;5091369;28;20495;-75
2022/01/15 00:02:29;;;;;;;13.00;7.30;;;;;;;;;;5094203;28;20377;-74
2022/01/15 00:04:55;;;;;;;16.93;8.67;;;;;;;;;;5096061;28;20302;-74
2022/01/15 00:07:21;;;;;;;18.90;7.73;;;;;;;;;;5096037;28;20309;-74
2022/01/15 00:09:50;;;;;;;13.03;7.13;;;;;;;;;;5094434;28;20707;-75
2022/01/15 00:12:16;;;;;;;13.63;7.37;;;;;;;;;;5077645;28;20286;-74
2022/01/15 00:14:43;;;;;;;11.97;6.73;;;;;;;;;;5095444;28;20279;-75
2022/01/15 00:17:43;;;;;;;15.83;7.43;;;;;;;;;;5095891;28;20752;-75
2022/01/15 00:20:07;;;;;;;12.67;6.80;;;;;;;;;;5082092;28;20305;-74
2022/01/15 00:22:33;;;;;;;28.27;8.73;;;;;;;;;;5095211;28;20285;-75
2022/01/15 00:24:59;;;;;;;16.80;6.93;;;;;;;;;;5094219;28;20306;-75
2022/01/15 00:27:25;;;;;;;16.90;7.50;;;;;;;;;;5094118;28;20780;-74
2022/01/15 00:29:52;;;;;;;15.27;6.73;;;;;;;;;;5094338;28;20365;-75
2022/01/15 00:32:18;;;;;;;13.07;6.67;;;;;;;;;;5095068;28;20336;-75
2022/01/15 00:34:44;;;;;;;12.80;6.23;;;;;;;;;;5094088;28;20332;-75
2022/01/15 00:37:10;;;;;;;12.47;6.03;;;;;;;;;;5095373;28;20424;-75
2022/01/15 00:39:36;;;;;;;14.87;6.87;;;;;;;;;;5060531;28;20590;-75
2022/01/15 00:42:03;;;;;;;13.93;6.20;;;;;;;;;;5094288;28;20745;-74
2022/01/15 00:44:29;;;;;;;11.43;5.90;;;;;;;;;;5093859;28;20650;-78
2022/01/15 00:46:55;;;;;;;14.90;6.13;;;;;;;;;;5077704;28;20335;-74
2022/01/15 00:49:21;;;;;;;11.97;5.57;;;;;;;;;;5095131;28;20285;-74
2022/01/15 00:51:47;;;;;;;12.43;5.67;;;;;;;;;;5093657;28;20398;-75
2022/01/15 00:54:14;;;;;;;11.17;5.57;;;;;;;;;;5093827;28;20286;-74
2022/01/15 00:56:40;;;;;;;12.83;5.57;;;;;;;;;;5094721;28;20334;-74
2022/01/15 00:59:06;;;;;;;12.17;5.43;;;;;;;;;;5095115;28;20282;-74
2022/01/15 01:01:32;;;;;;;16.67;5.53;;;;;;;;;;5094696;28;20693;-75
2022/01/15 01:03:58;;;;;;;20.00;5.87;;;;;;;;;;5094796;28;20285;-74
2022/01/15 01:06:25;;;;;;;11.03;4.37;;;;;;;;;;5094481;28;20306;-74
2022/01/15 01:08:51;;;;;;;7.20;3.70;;;;;;;;;;5094429;28;20304;-74
2022/01/15 01:11:23;;;;;;;6.60;3.40;;;;;;;;;;5127882;27;20389;-74
2022/01/15 01:24:24;;;;;;;5.90;3.63;;;;;;;;;;5094430;28;20274;-75
2022/01/15 01:27:01;;;;;;;7.37;3.27;;;;;;;;;;5093072;28;20324;-75
2022/01/15 01:29:45;;;;;;;11.77;4.20;;;;;;;;;;5094487;28;20297;-75
2022/01/15 01:32:42;;;;;;;7.55;4.40;;;;;;;;;;5093219;28;20302;-75
2022/01/15 01:35:09;;;;;;;11.00;3.87;;;;;;;;;;5093804;28;20048;-75
2022/01/15 01:37:43;;;;;;;10.57;4.37;;;;;;;;;;5093261;28;20298;-78
2022/01/15 01:45:51;;;;;;;6.97;4.53;;;;;;;;;;5092625;28;20389;-75
2022/01/15 01:48:17;;;;;;;7.87;4.87;;;;;;;;;;5093120;28;20670;-74
2022/01/15 01:50:44;;;;;;;7.97;4.70;;;;;;;;;;5093704;28;20288;-74
2022/01/15 01:53:10;;;;;;;8.70;5.20;;;;;;;;;;5093922;28;20330;-74
2022/01/15 01:55:36;;;;;;;8.30;4.47;;;;;;;;;;5092851;28;20695;-74
2022/01/15 01:58:03;;;;;;;8.77;5.10;;;;;;;;;;5094036;28;20765;-74
2022/01/15 02:00:30;;;;;;;8.87;5.03;;;;;;;;;;5093585;28;20702;-74
2022/01/15 02:02:56;;;;;;;8.43;5.47;;;;;;;;;;5092275;28;20330;-75
2022/01/15 02:05:22;;;;;;;10.23;6.00;;;;;;;;;;5092406;28;20301;-75
2022/01/15 02:07:49;;;;;;;9.80;5.10;;;;;;;;;;5092149;28;20308;-75
2022/01/15 02:10:17;;;;;;;9.40;5.90;;;;;;;;;;5093782;28;20281;-75
2022/01/15 02:12:44;;;;;;;8.87;5.60;;;;;;;;;;5091958;28;20317;-75
2022/01/15 02:15:15;;;;;;;8.23;5.37;;;;;;;;;;5092763;28;20361;-75
2022/01/15 02:17:44;;;;;;;13.83;5.80;;;;;;;;;;5075271;28;20290;-77
2022/01/15 02:20:24;;;;;;;15.07;6.50;;;;;;;;;;5091941;28;20373;-75
2022/01/15 02:25:41;;;;;;;10.03;5.53;;;;;;;;;;5092410;28;20305;-75
2022/01/15 02:28:07;;;;;;;9.63;4.87;;;;;;;;;;5075620;28;20377;-75
2022/01/15 02:30:33;;;;;;;7.40;4.47;;;;;;;;;;5093226;28;20330;-75
2022/01/15 02:33:00;;;;;;;8.67;5.27;;;;;;;;;;5093097;28;20298;-74
2022/01/15 02:35:26;;;;;;;10.27;5.67;;;;;;;;;;5092376;28;20394;-75
2022/01/15 02:37:52;;;;;;;10.27;5.43;;;;;;;;;;5092505;28;20762;-75
2022/01/15 02:40:18;;;;;;;9.70;5.70;;;;;;;;;;5092124;28;20297;-74
2022/01/15 02:42:44;;;;;;;7.27;4.50;;;;;;;;;;5092730;28;20313;-75
2022/01/15 02:45:12;;;;;;;6.77;4.23;;;;;;;;;;5092116;28;20861;-75
2022/01/15 02:50:23;;;;;;;9.50;5.37;;;;;;;;;;5093115;28;20281;-75
2022/01/15 02:52:49;;;;;;;7.23;4.50;;;;;;;;;;5092621;28;20321;-74
2022/01/15 02:55:15;;;;;;;9.50;5.00;;;;;;;;;;5091699;28;20336;-74
2022/01/15 02:57:41;;;;;;;7.77;4.73;;;;;;;;;;5092912;28;20335;-74
2022/01/15 03:00:07;;;;;;;7.33;4.57;;;;;;;;;;5091717;28;20435;-74
2022/01/15 03:02:34;;;;;;;6.63;4.40;;;;;;;;;;5093007;28;20286;-74
2022/01/15 03:05:00;;;;;;;6.63;4.13;;;;;;;;;;5091484;28;20736;-74
2022/01/15 03:07:26;;;;;;;5.93;3.83;;;;;;;;;;5092832;28;20289;-75
2022/01/15 03:09:52;;;;;;;8.43;4.70;;;;;;;;;;5092541;28;20278;-74
2022/01/15 03:12:18;;;;;;;11.63;5.50;;;;;;;;;;5093125;28;20372;-74
2022/01/15 03:14:47;;;;;;;12.10;6.07;;;;;;;;;;5092734;28;20372;-74
2022/01/15 03:17:13;;;;;;;7.63;4.80;;;;;;;;;;5092994;28;20327;-74
2022/01/15 03:19:39;;;;;;;7.83;4.13;;;;;;;;;;5092792;28;20286;-74
2022/01/15 03:22:05;;;;;;;7.83;4.90;;;;;;;;;;5092380;28;20336;-74
2022/01/15 03:24:31;;;;;;;6.50;4.20;;;;;;;;;;5091666;28;20293;-74
2022/01/15 03:26:58;;;;;;;7.30;3.97;;;;;;;;;;5091412;28;20394;-75
2022/01/15 03:29:24;;;;;;;7.97;3.67;;;;;;;;;;5092632;28;20278;-75
2022/01/15 03:31:50;;;;;;;8.43;3.87;;;;;;;;;;5090956;28;20373;-76
2022/01/15 03:34:16;;;;;;;6.60;3.60;;;;;;;;;;5092641;28;20753;-75
2022/01/15 03:36:42;;;;;;;8.40;3.40;;;;;;;;;;5094607;28;20706;-74
2022/01/15 03:39:08;;;;;;;7.13;3.90;;;;;;;;;;5078208;28;20294;-74
2022/01/15 03:41:34;;;;;;;6.53;3.43;;;;;;;;;;5096421;28;20357;-74
2022/01/15 03:44:00;;;;;;;6.03;3.33;;;;;;;;;;5096099;28;20377;-74
2022/01/15 03:46:27;;;;;;;7.27;4.23;;;;;;;;;;5095288;28;20309;-74
2022/01/15 03:48:53;;;;;;;8.30;4.67;;;;;;;;;;5095085;28;20292;-75
2022/01/15 03:51:19;;;;;;;6.87;4.40;;;;;;;;;;5096179;28;20282;-75
2022/01/15 03:53:46;;;;;;;8.50;4.37;;;;;;;;;;5095194;28;20329;-74
2022/01/15 03:56:12;;;;;;;8.07;4.43;;;;;;;;;;5077961;28;20462;-74
2022/01/15 03:58:39;;;;;;;7.23;4.50;;;;;;;;;;5095155;28;20278;-74
2022/01/15 04:01:05;;;;;;;8.90;4.77;;;;;;;;;;5095447;28;20850;-74
2022/01/15 04:03:31;;;;;;;8.30;4.80;;;;;;;;;;5095024;28;20373;-74
2022/01/15 04:05:57;;;;;;;8.33;5.30;;;;;;;;;;5095529;28;20298;-74
2022/01/15 04:08:23;;;;;;;10.20;5.03;;;;;;;;;;5095702;28;20278;-74
2022/01/15 04:10:49;;;;;;;7.53;4.27;;;;;;;;;;5095901;28;20278;-74
2022/01/15 04:13:15;;;;;;;8.27;4.83;;;;;;;;;;5095505;28;20289;-74
2022/01/15 04:15:42;;;;;;;8.40;4.73;;;;;;;;;;5095286;28;20869;-74
2022/01/15 04:18:09;;;;;;;11.60;5.27;;;;;;;;;;5095221;28;20365;-74
2022/01/15 04:20:35;;;;;;;9.13;5.40;;;;;;;;;;5095416;28;20282;-74
2022/01/15 04:23:01;;;;;;;9.33;5.27;;;;;;;;;;5095248;28;20281;-75
2022/01/15 04:25:28;;;;;;;7.80;4.47;;;;;;;;;;5077911;28;20360;-74
2022/01/15 04:27:57;;;;;;;7.80;4.80;;;;;;;;;;5128699;27;20297;-74
2022/01/15 04:30:24;;;;;;;7.60;4.33;;;;;;;;;;5095520;28;20286;-74
2022/01/15 04:32:51;;;;;;;8.47;4.47;;;;;;;;;;5094239;28;20290;-74
2022/01/15 04:35:17;;;;;;;6.80;4.07;;;;;;;;;;5095098;28;20283;-75
2022/01/15 04:37:47;;;;;;;6.80;3.67;;;;;;;;;;5077475;28;20373;-74
2022/01/15 04:40:14;;;;;;;7.13;3.87;;;;;;;;;;5095105;28;20282;-75
2022/01/15 04:42:40;;;;;;;7.33;4.03;;;;;;;;;;5094419;28;20290;-75
2022/01/15 04:45:07;;;;;;;12.87;4.10;;;;;;;;;;5094916;28;20298;-75
2022/01/15 04:47:34;;;;;;;6.97;3.37;;;;;;;;;;5094027;28;20343;-74
2022/01/15 04:50:01;;;;;;;5.60;2.80;;;;;;;;;;5094913;28;20274;-75
2022/01/15 04:52:27;;;;;;;6.23;3.20;;;;;;;;;;5095035;28;20289;-75
2022/01/15 04:54:53;;;;;;;4.43;2.40;;;;;;;;;;5095365;28;20281;-74
2022/01/15 04:57:19;;;;;;;4.40;2.43;;;;;;;;;;5093559;28;20363;-74
2022/01/15 04:59:45;;;;;;;5.83;2.30;;;;;;;;;;5093840;28;20385;-74
2022/01/15 05:02:11;;;;;;;4.17;1.80;;;;;;;;;;5093626;28;20294;-75
2022/01/15 05:04:38;;;;;;;6.67;1.80;;;;;;;;;;5093573;28;20285;-74
2022/01/15 05:07:04;;;;;;;4.30;2.20;;;;;;;;;;5094484;28;20356;-75
2022/01/15 05:09:30;;;;;;;4.80;2.43;;;;;;;;;;5093782;28;20294;-75
2022/01/15 05:12:03;;;;;;;5.90;2.40;;;;;;;;;;5093675;28;20322;-74
2022/01/15 05:14:30;;;;;;;4.93;2.80;;;;;;;;;;5094052;28;20290;-74
2022/01/15 05:16:56;;;;;;;7.00;4.10;;;;;;;;;;5076945;28;20297;-74
2022/01/15 05:19:22;;;;;;;7.00;3.67;;;;;;;;;;5093345;28;20913;-75
2022/01/15 05:21:48;;;;;;;7.70;4.17;;;;;;;;;;5094506;28;20309;-75
2022/01/15 05:24:14;;;;;;;5.90;2.80;;;;;;;;;;5093267;28;20684;-75
2022/01/15 05:26:40;;;;;;;5.73;3.20;;;;;;;;;;5076341;28;20692;-75
2022/01/15 05:29:06;;;;;;;5.13;2.60;;;;;;;;;;5094057;28;20282;-75
2022/01/15 05:31:32;;;;;;;5.50;2.70;;;;;;;;;;5093942;28;20278;-74
2022/01/15 05:33:58;;;;;;;7.00;2.80;;;;;;;;;;5094327;28;20286;-74
2022/01/15 05:36:25;;;;;;;4.13;2.40;;;;;;;;;;5093773;28;20285;-75
2022/01/15 05:38:51;;;;;;;4.37;2.23;;;;;;;;;;5076093;28;20343;-74
2022/01/15 05:41:19;;;;;;;4.63;2.50;;;;;;;;;;5092460;28;20672;-74
2022/01/15 05:43:45;;;;;;;6.67;2.63;;;;;;;;;;5092840;28;20619;-74
2022/01/15 05:46:11;;;;;;;5.37;2.37;;;;;;;;;;5092383;28;20310;-74
2022/01/15 05:48:37;;;;;;;3.90;1.70;;;;;;;;;;5076288;28;20286;-74
2022/01/15 05:51:03;;;;;;;6.80;1.77;;;;;;;;;;5092768;28;20297;-74
2022/01/15 05:53:30;;;;;;;3.90;1.50;;;;;;;;;;5092575;28;20329;-74
2022/01/15 05:55:56;;;;;;;4.77;1.60;;;;;;;;;;5093939;28;20365;-74
2022/01/15 05:58:22;;;;;;;3.80;1.50;;;;;;;;;;5092364;28;20830;-75
2022/01/15 06:00:48;;;;;;;3.90;1.60;;;;;;;;;;5092878;28;20326;-74
2022/01/15 06:03:14;;;;;;;3.97;1.67;;;;;;;;;;5093351;28;20681;-75
2022/01/15 06:05:40;;;;;;;4.47;1.37;;;;;;;;;;5093613;28;20306;-74
2022/01/15 06:08:06;;;;;;;4.73;1.63;;;;;;;;;;5092718;28;20286;-74
2022/01/15 06:10:34;;;;;;;3.67;1.50;;;;;;;;;;5093422;28;20364;-75
2022/01/15 06:13:00;;;;;;;5.33;1.60;;;;;;;;;;5093482;28;20293;-74
2022/01/15 06:15:26;;;;;;;3.43;1.40;;;;;;;;;;5093115;28;20336;-74
2022/01/15 06:17:52;;;;;;;5.17;2.00;;;;;;;;;;5093451;28;20464;-74
2022/01/15 06:20:18;;;;;;;4.13;1.83;;;;;;;;;;5092839;28;20789;-75
2022/01/15 06:22:44;;;;;;;3.90;1.93;;;;;;;;;;5059219;28;20300;-75
2022/01/15 06:25:11;;;;;;;5.00;1.90;;;;;;;;;;5092996;28;20385;-75
2022/01/15 06:27:37;;;;;;;3.63;1.73;;;;;;;;;;5092309;28;20753;-74
2022/01/15 06:30:04;;;;;;;4.13;2.10;;;;;;;;;;5093405;28;20293;-74
2022/01/15 06:32:35;;;;;;;5.10;2.33;;;;;;;;;;5092887;28;20294;-75
2022/01/15 06:35:02;;;;;;;4.33;2.10;;;;;;;;;;5093562;28;20281;-74
2022/01/15 06:37:28;;;;;;;4.70;2.20;;;;;;;;;;5091922;28;20298;-74
2022/01/15 06:39:54;;;;;;;4.10;2.13;;;;;;;;;;5092243;28;20357;-74
2022/01/15 06:42:20;;;;;;;4.50;2.50;;;;;;;;;;5092998;28;20274;-75
2022/01/15 06:44:47;;;;;;;4.83;2.40;;;;;;;;;;5074976;28;20379;-75
2022/01/15 06:47:13;;;;;;;4.10;2.27;;;;;;;;;;5075119;28;20630;-75
2022/01/15 06:49:39;;;;;;;4.90;2.57;;;;;;;;;;5091789;28;20292;-74
2022/01/15 06:52:05;;;;;;;4.83;2.60;;;;;;;;;;5093010;28;20289;-74
2022/01/15 06:54:31;;;;;;;4.87;2.43;;;;;;;;;;5092663;28;20351;-75
2022/01/15 06:56:57;;;;;;;6.13;2.83;;;;;;;;;;5075262;28;20294;-75
2022/01/15 06:59:23;;;;;;;5.03;2.63;;;;;;;;;;5092680;28;20274;-75
2022/01/15 07:01:49;;;;;;;4.70;2.47;;;;;;;;;;5092945;28;20286;-75
2022/01/15 07:04:16;;;;;;;5.30;2.97;;;;;;;;;;5092657;28;20285;-75
2022/01/15 07:06:42;;;;;;;6.03;3.60;;;;;;;;;;5091676;28;20400;-74
2022/01/15 07:09:08;;;;;;;5.20;2.93;;;;;;;;;;5091930;28;20380;-74
2022/01/15 07:11:35;;;;;;;5.93;3.10;;;;;;;;;;5093602;28;20294;-74
2022/01/15 07:14:01;;;;;;;4.63;2.80;;;;;;;;;;5096759;28;20285;-74
2022/01/15 07:16:27;;;;;;;6.00;3.23;;;;;;;;;;5096458;28;20365;-74
2022/01/15 07:18:53;;;;;;;4.67;2.67;;;;;;;;;;5096713;28;20318;-74
2022/01/15 07:21:19;;;;;;;6.00;3.27;;;;;;;;;;5095386;28;20290;-74
2022/01/15 07:23:45;;;;;;;5.70;2.80;;;;;;;;;;5079055;28;20432;-74
2022/01/15 07:26:11;;;;;;;5.97;2.93;;;;;;;;;;5095513;28;20309;-74
2022/01/15 07:28:38;;;;;;;6.57;3.27;;;;;;;;;;5096383;28;20281;-74
2022/01/15 07:31:04;;;;;;;4.93;2.63;;;;;;;;;;5095605;28;20319;-74
2022/01/15 07:33:30;;;;;;;5.85;2.83;;;;;;;;;;5096659;28;20135;-74
2022/01/15 07:35:56;;;;;;;5.87;2.90;;;;;;;;;;5096454;28;20048;-74
2022/01/15 07:38:22;;;;;;;7.37;3.30;;;;;;;;;;5095146;28;20653;-74
2022/01/15 07:40:49;;;;;;;5.07;2.63;;;;;;;;;;5095202;28;20292;-74
2022/01/15 07:43:15;;;;;;;6.30;3.60;;;;;;;;;;5095130;28;20127;-74
2022/01/15 07:45:41;;;;;;;7.07;3.22;;;;;;;;;;5096000;28;20393;-74
2022/01/15 07:48:07;;;;;;;7.63;3.55;;;;;;;;;;5096089;28;20477;-74
2022/01/15 07:50:34;;;;;;;7.30;4.00;;;;;;;;;;5094964;28;20048;-74
2022/01/15 07:53:00;;;;;;;6.47;3.83;;;;;;;;;;5095241;28;20317;-74
2022/01/15 07:55:26;;;;;;;6.50;3.35;;;;;;;;;;5094856;28;20404;-74
2022/01/15 07:57:53;;;;;;;6.40;3.60;;;;;;;;;;5095982;28;20484;-74
2022/01/15 08:00:20;;;;;;;7.27;3.90;;;;;;;;;;5095973;28;20799;-74
2022/01/15 08:02:46;;;;;;;7.00;3.30;;;;;;;;;;5096064;28;20343;-74
2022/01/15 08:05:13;;;;;;;7.93;3.97;;;;;;;;;;5095972;28;20341;-73
2022/01/15 08:07:40;;;;;;;7.07;3.53;;;;;;;;;;5095592;28;20286;-73
2022/01/15 08:10:07;;;;;;;7.57;4.00;;;;;;;;;;5095938;28;20056;-74
2022/01/15 08:12:43;;;;;;;7.20;4.30;;;;;;;;;;5077694;28;20127;-75
2022/01/15 08:15:09;;;;;;;6.25;3.47;;;;;;;;;;5095771;28;20274;-75
2022/01/15 08:17:35;;;;;;;6.95;3.30;;;;;;;;;;5095481;28;20052;-75
2022/01/15 08:20:02;;;;;;;7.00;3.67;;;;;;;;;;5095777;28;20044;-74
2022/01/15 08:22:28;;;;;;;7.50;3.70;;;;;;;;;;5095362;28;20290;-74
2022/01/15 08:24:54;;;;;;;7.10;4.03;;;;;;;;;;5095593;28;20294;-74
2022/01/15 08:27:20;;;;;;;7.43;4.07;;;;;;;;;;5095626;28;20391;-73
2022/01/15 08:29:46;;;;;;;9.07;4.05;;;;;;;;;;5094287;28;20048;-74
2022/01/15 08:32:12;;;;;;;10.95;4.97;;;;;;;;;;5095365;28;20052;-74
2022/01/15 08:34:38;;;;;;;8.93;4.57;;;;;;;;;;5077300;28;20055;-74
2022/01/15 08:37:05;;;;;;;8.13;4.35;;;;;;;;;;5095416;28;20328;-75
2022/01/15 08:39:31;;;;;;;8.03;4.37;;;;;;;;;;5093853;28;20054;-75
2022/01/15 08:41:57;;;;;;;9.80;4.65;;;;;;;;;;5095450;28;20282;-75
2022/01/15 08:44:25;;;;;;;8.73;4.90;;;;;;;;;;5094188;28;20055;-73
2022/01/15 08:46:52;;;;;;;8.70;4.97;;;;;;;;;;5094056;28;20040;-76
2022/01/15 08:49:21;;;;;;;10.23;5.43;;;;;;;;;;5094211;28;20382;-74
2022/01/15 08:51:47;;;;;;;10.05;5.32;;;;;;;;;;5094560;28;20462;-74
2022/01/15 08:54:13;;;;;;;9.05;5.38;;;;;;;;;;5095092;28;20129;-73
2022/01/15 08:56:39;;;;;;;10.20;5.78;;;;;;;;;;5094700;28;20046;-73
2022/01/15 08:59:05;;;;;;;11.47;5.67;;;;;;;;;;5094051;28;20508;-72
2022/01/15 09:01:32;;;;;;;11.32;5.53;;;;;;;;;;5094687;28;20332;-73
2022/01/15 09:03:58;;;;;;;12.30;6.20;;;;;;;;;;5094999;28;20157;-72
2022/01/15 09:06:27;;;;;;;7.53;4.85;;;;;;;;;;5094784;28;20306;-72
2022/01/15 09:08:53;;;;;;;8.13;4.88;;;;;;;;;;5095630;28;20109;-73
2022/01/15 09:11:19;;;;;;;7.63;4.43;;;;;;;;;;5094992;28;20052;-72
2022/01/15 09:13:47;;;;;;;8.67;4.70;;;;;;;;;;5093677;28;20459;-73
2022/01/15 09:16:13;;;;;;;8.77;5.05;;;;;;;;;;5094006;28;20330;-73
2022/01/15 09:18:39;;;;;;;7.25;4.55;;;;;;;;;;5094358;28;20048;-73
2022/01/15 09:21:06;;;;;;;9.27;5.33;;;;;;;;;;5093754;28;20147;-72
2022/01/15 09:23:32;;;;;;;9.07;5.30;;;;;;;;;;5094321;28;20328;-73
2022/01/15 09:25:59;;;;;;;10.52;5.43;;;;;;;;;;5095160;28;20040;-73
2022/01/15 09:31:11;;;;;;;10.55;5.93;;;;;;;;;;5094585;28;20055;-73
2022/01/15 09:33:37;;;;;;;9.65;6.05;;;;;;;;;;5093090;28;20411;-75
2022/01/15 09:36:04;;;;;;;10.70;5.93;;;;;;;;;;5093313;28;20051;-77
2022/01/15 09:38:30;;;;;;;10.52;6.65;;;;;;;;;;5094203;28;20125;-76
2022/01/15 09:40:57;;;;;;;11.30;6.40;;;;;;;;;;5093208;28;20123;-77
2022/01/15 09:43:23;;;;;;;10.40;6.10;;;;;;;;;;5092913;28;20766;-77
2022/01/15 09:45:51;;;;;;;9.52;5.20;;;;;;;;;;5093658;28;20298;-77
2022/01/15 09:48:17;;;;;;;11.82;6.78;;;;;;;;;;5093096;28;20131;-77
2022/01/15 09:50:44;;;;;;;8.88;5.60;;;;;;;;;;5093147;28;20048;-77
2022/01/15 09:53:13;;;;;;;9.13;5.30;;;;;;;;;;5093419;28;20066;-77
2022/01/15 09:55:39;;;;;;;10.18;5.82;;;;;;;;;;5093113;28;20362;-77
2022/01/15 09:58:06;;;;;;;7.50;4.90;;;;;;;;;;5075465;28;20048;-76
2022/01/15 10:00:32;;;;;;;8.25;4.97;;;;;;;;;;5090756;28;20321;-75
2022/01/15 10:02:58;;;;;;;8.02;4.95;;;;;;;;;;5093507;28;20048;-75
2022/01/15 10:05:25;;;;;;;8.20;4.82;;;;;;;;;;5092397;28;20119;-75
2022/01/15 10:07:54;;;;;;;9.25;5.30;;;;;;;;;;5093018;28;20564;-76
2022/01/15 10:10:22;;;;;;;8.68;5.50;;;;;;;;;;5093306;28;20500;-76
2022/01/15 10:12:51;;;;;;;8.27;5.47;;;;;;;;;;5092310;28;20139;-78
2022/01/15 10:15:18;;;;;;;9.73;5.57;;;;;;;;;;5092378;28;20499;-78
2022/01/15 10:17:44;;;;;;;9.95;5.43;;;;;;;;;;5092346;28;20374;-78
2022/01/15 10:20:12;;;;;;;8.57;5.55;;;;;;;;;;5091386;28;20134;-77
2022/01/15 10:22:45;;;;;;;9.40;6.10;;;;;;;;;;5093226;28;20052;-79
2022/01/15 10:25:18;;;;;;;10.52;5.80;;;;;;;;;;5093644;28;20048;-78
2022/01/15 10:27:54;;;;;;;12.18;6.65;;;;;;;;;;5093767;28;20058;-78
2022/01/15 10:30:25;;;;;;;14.02;6.82;;;;;;;;;;5092593;28;20127;-78
2022/01/15 10:33:04;;;;;;;13.23;7.60;;;;;;;;;;5091743;28;20094;-78
2022/01/15 10:35:32;;;;;;;11.77;6.90;;;;;;;;;;5092018;28;20270;-77
2022/01/15 10:37:59;;;;;;;12.13;7.93;;;;;;;;;;5091769;28;20286;-74
2022/01/15 10:40:27;;;;;;;11.50;7.63;;;;;;;;;;5092255;28;20105;-77
2022/01/15 10:42:55;;;;;;;12.47;7.87;;;;;;;;;;5091915;28;20282;-77
2022/01/15 10:45:22;;;;;;;15.48;8.27;;;;;;;;;;5092322;28;20298;-78
2022/01/15 10:47:49;;;;;;;16.15;8.85;;;;;;;;;;5075217;28;20056;-76
2022/01/15 10:50:21;;;;;;;17.88;9.23;;;;;;;;;;5092169;28;20131;-77
2022/01/15 10:52:47;;;;;;;16.25;9.10;;;;;;;;;;5091828;28;20234;-81
2022/01/15 10:55:15;;;;;;;15.27;9.80;;;;;;;;;;5091715;28;20082;-79
2022/01/15 10:58:02;;;;;;;14.50;9.43;;;;;;;;;;5074676;28;20044;-77
2022/01/15 11:00:54;;;;;;;24.50;12.05;;;;;;;;;;5091993;28;20381;-77
2022/01/15 11:03:22;;;;;;;23.70;11.25;;;;;;;;;;5089262;28;20059;-78
2022/01/15 11:05:48;;;;;;;19.95;11.82;;;;;;;;;;5092537;28;20062;-77
2022/01/15 11:08:18;;;;;;;18.23;11.73;;;;;;;;;;5092049;28;20047;-78
2022/01/15 11:10:46;;;;;;;21.15;12.18;;;;;;;;;;5092507;28;20282;-79
2022/01/15 11:13:14;;;;;;;17.63;9.85;;;;;;;;;;5093164;28;20044;-78
2022/01/15 11:15:41;;;;;;;17.02;10.65;;;;;;;;;;5091417;28;20055;-78
2022/01/15 11:18:09;;;;;;;17.17;10.60;;;;;;;;;;5091736;28;20120;-77
2022/01/15 11:20:35;;;;;;;20.00;10.60;;;;;;;;;;5091594;28;20134;-77
2022/01/15 11:23:02;;;;;;;18.70;10.57;;;;;;;;;;5091457;28;20369;-79
2022/01/15 11:25:28;;;;;;;22.25;12.07;;;;;;;;;;5074911;28;20048;-77
2022/01/15 11:27:55;;;;;;;20.83;11.70;;;;;;;;;;5092502;28;20044;-77
2022/01/15 11:30:21;;;;;;;20.23;11.82;;;;;;;;;;5092013;28;20055;-78
2022/01/15 11:32:48;;;;;;;19.95;11.85;;;;;;;;;;5092086;28;20488;-75
2022/01/15 11:35:14;;;;;;;21.05;11.70;;;;;;;;;;5092658;28;20094;-74
2022/01/15 11:37:50;;;;;;;23.20;13.63;;;;;;;;;;5092621;28;20058;-75
2022/01/15 11:40:33;;;;;;;19.13;11.47;;;;;;;;;;5092644;28;20327;-77
2022/01/15 11:43:19;;;;;;;18.85;11.93;;;;;;;;;;5092393;28;20286;-74
2022/01/15 11:45:45;;;;;;;24.10;12.87;;;;;;;;;;5092419;28;20036;-73
2022/01/15 11:48:19;;;;;;;22.63;13.03;;;;;;;;;;5092237;28;20792;-74
2022/01/15 11:50:45;;;;;;;18.52;11.90;;;;;;;;;;5092532;28;20285;-74
2022/01/15 11:53:31;;;;;;;19.07;11.50;;;;;;;;;;5092414;28;20093;-73
2022/01/15 11:56:16;;;;;;;21.57;12.03;;;;;;;;;;5092085;28;20332;-72
2022/01/15 11:58:42;;;;;;;17.02;11.70;;;;;;;;;;5095026;28;20769;-73
2022/01/15 12:01:28;;;;;;;19.20;12.27;;;;;;;;;;5095842;28;20063;-73
2022/01/15 12:04:14;;;;;;;20.20;11.30;;;;;;;;;;5095659;28;20293;-74
2022/01/15 12:06:59;;;;;;;17.73;11.87;;;;;;;;;;5095862;28;20047;-72
2022/01/15 12:09:44;;;;;;;16.63;10.63;;;;;;;;;;5095925;28;20480;-72
2022/01/15 12:12:38;;;;;;;18.52;11.82;;;;;;;;;;5094428;28;20047;-73
2022/01/15 12:15:05;;;;;;;15.85;10.38;;;;;;;;;;5095692;28;20486;-72
2022/01/15 12:17:37;;;;;;;17.67;10.52;;;;;;;;;;5095920;28;20086;-74
2022/01/15 12:20:25;;;;;;;14.98;9.43;;;;;;;;;;5089025;28;20048;-75
2022/01/15 12:22:56;;;;;;;14.27;9.73;;;;;;;;;;5083924;28;20067;-79
2022/01/15 12:25:22;;;;;;;14.32;9.85;;;;;;;;;;5089666;28;20290;-76
2022/01/15 12:27:56;;;;;;;17.83;11.20;;;;;;;;;;5085124;28;20043;-75
2022/01/15 12:30:23;;;;;;;16.45;10.52;;;;;;;;;;5087917;28;20044;-76
2022/01/15 12:32:50;;;;;;;26.80;11.68;;;;;;;;;;5087233;28;20048;-74
2022/01/15 12:35:20;;;;;;;25.10;11.55;;;;;;;;;;5086322;28;20059;-77
2022/01/15 12:38:10;;;;;;;20.55;12.07;;;;;;;;;;5087729;28;20110;-79
2022/01/15 12:40:47;;;;;;;25.13;12.70;;;;;;;;;;5083784;28;20044;-76
2022/01/15 12:43:29;;;;;;;21.80;12.98;;;;;;;;;;5089706;28;20052;-76
2022/01/15 12:45:56;;;;;;;17.83;12.23;;;;;;;;;;5083961;28;20723;-78
2022/01/15 12:48:27;;;;;;;21.70;14.02;;;;;;;;;;5088401;28;20040;-77
2022/01/15 12:50:54;;;;;;;17.15;12.68;;;;;;;;;;5086050;28;20070;-78
2022/01/15 12:53:22;;;;;;;20.50;13.93;;;;;;;;;;5086896;28;20048;-74
2022/01/15 12:55:48;;;;;;;19.17;13.32;;;;;;;;;;5086814;28;20074;-74
2022/01/15 12:58:15;;;;;;;21.20;14.15;;;;;;;;;;5065227;28;20634;-75
2022/01/15 13:00:41;;;;;;;26.17;15.05;;;;;;;;;;5089185;28;20087;-75
2022/01/15 13:03:09;;;;;;;21.40;14.98;;;;;;;;;;5065852;28;20383;-80
2022/01/15 13:05:56;;;;;;;24.40;15.80;;;;;;;;;;5088897;28;20546;-78
2022/01/15 13:08:32;;;;;;;24.05;15.35;;;;;;;;;;5083443;28;20032;-76
2022/01/15 13:11:15;;;;;;;28.38;15.85;;;;;;;;;;5086029;28;20535;-75
2022/01/15 13:13:45;;;;;;;25.92;15.75;;;;;;;;;;5089468;28;20055;-75
2022/01/15 13:16:14;;;;;;;22.80;14.57;;;;;;;;;;5086381;28;20048;-76
2022/01/15 13:18:53;;;;;;;37.67;17.30;;;;;;;;;;5089186;28;20083;-77
2022/01/15 13:21:25;;;;;;;31.33;16.80;;;;;;;;;;5088720;28;20052;-77
2022/01/15 13:23:53;;;;;;;34.85;17.40;;;;;;;;;;5089132;28;20087;-76
2022/01/15 13:26:30;;;;;;;22.73;16.02;;;;;;;;;;5086083;28;20052;-75
2022/01/15 13:28:58;;;;;;;25.52;16.25;;;;;;;;;;5089113;28;20048;-76
2022/01/15 13:31:28;;;;;;;36.10;17.17;;;;;;;;;;5088811;28;20056;-78
2022/01/15 13:33:54;;;;;;;23.40;16.45;;;;;;;;;;5089803;28;20450;-74
2022/01/15 13:36:20;;;;;;;39.38;16.98;;;;;;;;;;5086037;28;20048;-75
2022/01/15 13:38:50;;;;;;;28.85;15.98;;;;;;;;;;5088864;28;20075;-76
2022/01/15 13:41:18;;;;;;;24.20;16.33;;;;;;;;;;5087079;28;20546;-78
2022/01/15 13:43:45;;;;;;;23.95;16.25;;;;;;;;;;5089215;28;20290;-80
2022/01/15 13:46:12;;;;;;;29.90;16.50;;;;;;;;;;5086629;28;21047;-75
2022/01/15 13:48:39;;;;;;;27.20;16.45;;;;;;;;;;5088594;28;20094;-75
2022/01/15 13:54:05;;;;;;;23.33;16.52;;;;;;;;;;5089154;28;20285;-74
2022/01/15 13:56:31;;;;;;;26.83;16.30;;;;;;;;;;5086126;28;20067;-76
2022/01/15 13:59:03;;;;;;;29.52;17.02;;;;;;;;;;5070514;28;20048;-75
2022/01/15 14:01:31;;;;;;;26.20;15.77;;;;;;;;;;5088124;28;20078;-76
2022/01/15 14:03:58;;;;;;;23.33;15.88;;;;;;;;;;5088341;28;20173;-76
2022/01/15 14:06:24;;;;;;;27.05;16.52;;;;;;;;;;5086058;28;20381;-76
2022/01/15 14:09:01;;;;;;;24.65;16.65;;;;;;;;;;5088725;28;20040;-75
2022/01/15 14:11:28;;;;;;;32.33;18.45;;;;;;;;;;5087931;28;20116;-75
2022/01/15 14:14:03;;;;;;;28.27;17.63;;;;;;;;;;5086954;28;20135;-76
2022/01/15 14:16:29;;;;;;;23.02;16.23;;;;;;;;;;5084592;28;20392;-76
2022/01/15 14:19:36;;;;;;;30.85;18.45;;;;;;;;;;5070273;28;20056;-77
2022/01/15 14:21:53;;;;;;;52.05;17.45;;;;;;;;;;5088264;28;20055;-76
2022/01/15 14:24:24;;;;;;;35.25;18.02;;;;;;;;;;5086859;28;20044;-76
2022/01/15 14:26:56;;;;;;;29.38;16.27;;;;;;;;;;5084343;28;20232;-75
2022/01/15 14:29:22;;;;;;;39.28;18.70;;;;;;;;;;5086360;28;20083;-78
2022/01/15 14:31:48;;;;;;;27.25;17.20;;;;;;;;;;5086503;28;20050;-75
2022/01/15 14:34:15;;;;;;;37.42;18.33;;;;;;;;;;5086482;28;20549;-78
2022/01/15 14:36:41;;;;;;;38.22;19.50;;;;;;;;;;5086227;28;20051;-76
2022/01/15 14:39:07;;;;;;;36.10;19.33;;;;;;;;;;5087519;28;20101;-75
2022/01/15 14:41:34;;;;;;;35.97;19.55;;;;;;;;;;5087407;28;20131;-75
2022/01/15 14:44:00;;;;;;;45.88;18.75;;;;;;;;;;5088240;28;20582;-76
2022/01/15 14:46:26;;;;;;;36.08;18.30;;;;;;;;;;5084767;28;20627;-76
2022/01/15 14:48:52;;;;;;;39.50;19.70;;;;;;;;;;5087679;28;20044;-77
2022/01/15 14:51:19;;;;;;;46.38;19.50;;;;;;;;;;5087001;28;20055;-80
2022/01/15 14:53:45;;;;;;;44.45;20.20;;;;;;;;;;5088416;28;20048;-76
2022/01/15 14:56:11;;;;;;;45.22;20.38;;;;;;;;;;5085226;28;20056;-77
2022/01/15 14:58:38;;;;;;;87.13;20.83;;;;;;;;;;5087470;28;20078;-75
2022/01/15 15:01:04;;;;;;;63.95;20.60;;;;;;;;;;5086220;28;20059;-78
2022/01/15 15:03:33;;;;;;;45.75;19.05;;;;;;;;;;5086875;28;20079;-75
2022/01/15 15:06:03;;;;;;;36.22;20.98;;;;;;;;;;5085298;28;20040;-76